^^
Datos históricos de la estación: Murcia-Puente Tocinos
Diario Informe para Abril 2, 2019 Unidades:  Ingés    Métrico   Ambas
Diario Semanal Mensual Anual
  Máxima: Mínima: Promedio:
Temperatura: 83.8 °F 72.3 °F 77.7 °F
Punto de rocio: 72.3 °F 63.9 °F 68.7 °F
Humedad: 86.3% 60.2% 74%
Velocidad viento: 12.5mph 0mph 5.2mph
Racha viento: 24.2mph - -
Viento- - ENE
Presión: 30.1 in 29.9 in -
Precipitación: 0.15 in    
 
 
Tabla de datos para Abril 2, 2019
Hora Temperatura Punto de rocio Presión Viento Velocidad viento Racha viento Humedad Intensidad lluvia(por hora) Nubes
00:04 78.8 °F 63.9 °F 29.9 in NNO 3.1 mph 6 mph 60.2% 0 in
00:09 78.6 °F 64 °F 29.9 in North 2.9 mph 5.2 mph 61% 0 in
00:14 78.6 °F 64 °F 29.9 in NNE 2.4 mph 5.4 mph 61.2% 0 in
00:19 78.6 °F 64.4 °F 29.9 in NNE 2.6 mph 6.4 mph 62% 0 in
00:24 78.4 °F 64.6 °F 29.9 in NE 3.1 mph 8.1 mph 62.6% 0 in
00:29 78.3 °F 64.8 °F 29.9 in NE 3.5 mph 8 mph 63.5% 0 in
00:34 77.7 °F 64.9 °F 29.9 in NE 4.3 mph 7 mph 64.8% 0 in
00:39 77.7 °F 64.9 °F 29.9 in Este 4.2 mph 7 mph 65% 0 in
00:44 77.4 °F 64.8 °F 29.9 in Este 4 mph 6 mph 65% 0 in
00:49 77 °F 64.4 °F 29.9 in Este 3.9 mph 6 mph 65% 0 in
00:54 76.8 °F 64.6 °F 29.9 in SE 3.6 mph 5 mph 66% 0 in
00:59 76.8 °F 64.6 °F 29.9 in SE 3 mph 4 mph 66% 0 in
01:04 76.6 °F 64.4 °F 29.9 in ENE 1.8 mph 4.6 mph 66% 0 in
01:09 76.6 °F 64.9 °F 29.9 in North 2 mph 5 mph 67.2% 0 in
01:14 76.6 °F 65.5 °F 29.9 in North 2.4 mph 6.2 mph 68.7% 0 in
01:19 76.5 °F 65.8 °F 29.9 in NE 2.6 mph 8.1 mph 69.9% 0 in
01:24 76.3 °F 66 °F 29.9 in NE 3.1 mph 8.1 mph 71% 0 in
01:29 75.9 °F 66 °F 29.9 in NE 3.5 mph 8.5 mph 71.5% 0 in
01:34 75.7 °F 65.7 °F 29.9 in NE 4.3 mph 9 mph 71% 0 in
01:39 75.7 °F 65.7 °F 29.9 in ENE 4.1 mph 7 mph 71% 0 in
01:44 75.9 °F 65.5 °F 29.9 in Este 3.6 mph 5.9 mph 70% 0 in
01:49 75.7 °F 65.3 °F 29.9 in Este 3.4 mph 6 mph 70% 0 in
01:54 75.7 °F 65.1 °F 29.9 in NE 3.1 mph 5 mph 69.7% 0 in
01:59 75.6 °F 64.8 °F 29.9 in NE 2.7 mph 3.6 mph 69% 0 in
02:04 75.6 °F 64.8 °F 29.9 in North 1.8 mph 4 mph 69% 0 in
02:09 75.7 °F 65.1 °F 29.9 in NNO 1.9 mph 4.6 mph 69.8% 0 in
02:14 75.7 °F 65.1 °F 29.9 in NNO 2 mph 5 mph 70% 0 in
02:19 75.6 °F 65.3 °F 29.9 in NNO 2.1 mph 5 mph 70.4% 0 in
02:24 75.4 °F 65.5 °F 29.9 in NNO 2.4 mph 4 mph 71.4% 0 in
02:29 75.4 °F 65.7 °F 29.9 in NNO 2.2 mph 3.6 mph 72% 0 in
02:34 75.2 °F 65.5 °F 29.9 in NNO 1.8 mph 4 mph 72% 0 in
02:39 75 °F 65.5 °F 29.9 in NNO 1.7 mph 3.6 mph 72% 0 in
02:44 75 °F 65.5 °F 29.9 in NNO 1.4 mph 4 mph 72.2% 0 in
02:49 75 °F 65.8 °F 29.9 in NO 1.5 mph 4 mph 73% 0 in
02:54 75 °F 65.5 °F 29.9 in NE 1.8 mph 4.6 mph 72.4% 0 in
02:59 75 °F 65.3 °F 29.9 in ESE 1.7 mph 5 mph 72% 0 in
03:04 74.8 °F 65.3 °F 29.9 in ESE 1.4 mph 2.9 mph 72% 0 in
03:09 74.8 °F 65.3 °F 29.9 in ESE 1.4 mph 3 mph 72.3% 0 in
03:14 74.8 °F 65.7 °F 29.9 in NE 1.4 mph 3 mph 73.2% 0 in
03:19 74.8 °F 66 °F 29.9 in NNE 1.4 mph 3.5 mph 74% 0 in
03:24 74.8 °F 66 °F 29.9 in NNE 1.4 mph 3 mph 74% 0 in
03:29 74.8 °F 66 °F 29.9 in NNE 1 mph 3 mph 74% 0 in
03:34 74.7 °F 65.8 °F 29.9 in Calm   2.4 mph 74% 0 in
03:39 74.7 °F 66 °F 29.9 in NNE 0.4 mph 3.6 mph 74.7% 0 in
03:44 74.5 °F 66 °F 29.9 in NNE 1.4 mph 4 mph 75% 0 in
03:49 74.1 °F 65.8 °F 29.9 in NNE 1.6 mph 4 mph 75% 0 in
03:54 73.9 °F 65.7 °F 29.9 in NE 2 mph 4.7 mph 75% 0 in
03:59 73.9 °F 65.5 °F 29.9 in NE 2.1 mph 5 mph 74.8% 0 in
04:04 73.9 °F 65.1 °F 29.9 in ENE 2.4 mph 5 mph 74% 0 in
04:09 73.9 °F 64.6 °F 29.9 in ESE 2.4 mph 5 mph 72.8% 0 in
04:14 74.1 °F 64.8 °F 29.9 in Este 2.4 mph 5 mph 72.6% 0 in
04:19 74.1 °F 65.3 °F 29.9 in NNE 2.3 mph 5.2 mph 73.9% 0 in
04:24 73.9 °F 65.3 °F 29.9 in NNE 2 mph 5 mph 74.6% 0 in
04:29 73.8 °F 65.7 °F 29.9 in NE 2.3 mph 5.9 mph 75.7% 0 in
04:34 73.8 °F 66.2 °F 29.9 in NE 2.9 mph 6 mph 77.4% 0 in
04:39 73.8 °F 66.7 °F 29.9 in NE 3.1 mph 6 mph 78.6% 0 in
04:44 73.6 °F 66.4 °F 29.9 in NE 3.6 mph 6 mph 78.3% 0 in
04:49 73.6 °F 65.7 °F 29.9 in NE 3.6 mph 6.2 mph 76.5% 0 in
04:54 73.6 °F 65.5 °F 29.9 in NE 3.6 mph 6 mph 76% 0 in
04:59 73.6 °F 65.7 °F 29.9 in NE 3.6 mph 6 mph 76.7% 0 in
05:04 73.2 °F 65.8 °F 29.9 in NE 3.6 mph 6 mph 77.8% 0 in
05:09 73 °F 66.2 °F 29.9 in NE 3.6 mph 6.2 mph 78.9% 0 in
05:14 73 °F 66.2 °F 29.9 in NNE 3.6 mph 6.9 mph 79.3% 0 in
05:19 73.2 °F 66.6 °F 29.9 in NNE 3.6 mph 7 mph 80% 0 in
05:24 73.2 °F 66.9 °F 29.9 in NNE 3.6 mph 6 mph 80.9% 0 in
05:29 73.2 °F 66.9 °F 29.9 in NNE 3.4 mph 6 mph 81% 0 in
05:34 73.2 °F 67.1 °F 29.9 in NNE 2.9 mph 5 mph 81.1% 0 in
05:39 73.4 °F 67.5 °F 29.9 in NNE 2.9 mph 5.2 mph 81.6% 0 in
05:44 73.4 °F 67.6 °F 29.9 in NNE 3.1 mph 5.2 mph 81.9% 0 in
05:49 73.4 °F 67.6 °F 29.9 in NE 3 mph 6.2 mph 82% 0 in
05:54 73.4 °F 67.8 °F 29.9 in NE 2.9 mph 6 mph 82.6% 0 in
05:59 73.2 °F 67.6 °F 29.9 in NE 3.3 mph 7.4 mph 83% 0 in
06:04 73 °F 67.8 °F 29.9 in NE 4 mph 7.4 mph 83.3% 0 in
06:09 73 °F 67.8 °F 29.9 in NE 4 mph 7 mph 84% 0 in
06:14 72.9 °F 67.8 °F 29.9 in NE 4 mph 6 mph 84.1% 0 in
06:19 72.9 °F 68 °F 29.9 in NE 3.7 mph 5.2 mph 85% 0 in
06:24 72.7 °F 67.8 °F 29.9 in NE 2.9 mph 6.2 mph 85% 0 in
06:29 72.5 °F 67.8 °F 29.9 in NE 3.1 mph 7.4 mph 85% 0 in
06:34 72.3 °F 67.6 °F 29.9 in NE 3.6 mph 7.4 mph 85% 0 in
06:39 72.3 °F 67.6 °F 29.9 in ENE 3.9 mph 7 mph 85% 0 in
06:44 72.5 °F 67.8 °F 29.9 in Este 4.3 mph 7 mph 84.9% 0 in
06:49 72.5 °F 67.5 °F 29.9 in Este 4.1 mph 6 mph 84% 0 in
06:54 72.5 °F 67.6 °F 29.9 in ESE 3.6 mph 6.2 mph 84.9% 0 in
06:59 72.7 °F 68.2 °F 29.9 in Este 3.7 mph 6 mph 85.8% 0 in
07:04 72.9 °F 68.4 °F 29.9 in Este 4 mph 6 mph 86% 0 in
07:09 73 °F 68.5 °F 29.9 in Este 3.9 mph 6.2 mph 86% 0 in
07:14 73 °F 68.7 °F 29.9 in Este 3.6 mph 6.9 mph 86.3% 0 in
07:19 73.4 °F 69.1 °F 29.9 in Este 3.7 mph 7 mph 86.3% 0 in
07:24 73.8 °F 69.3 °F 29.9 in ESE 4 mph 6.9 mph 86% 0 in
07:29 73.9 °F 69.3 °F 29.9 in ESE 4 mph 7 mph 85.6% 0 in
07:34 74.1 °F 69.3 °F 30 in Este 4 mph 7 mph 85% 0 in
07:39 74.3 °F 69.8 °F 30 in Este 3.9 mph 6 mph 86% 0 in
07:44 74.5 °F 70 °F 30 in Este 3.6 mph 6 mph 86% 0 in
07:49 74.5 °F 70 °F 30 in Este 3.2 mph 5 mph 86% 0 in
07:54 74.7 °F 70.2 °F 30 in Este 2.4 mph 5 mph 86% 0 in
07:59 74.7 °F 70.2 °F 30 in Este 2.2 mph 5 mph 86% 0 in
08:04 74.8 °F 70.3 °F 30 in ENE 2 mph 4.6 mph 86% 0 in
08:09 74.8 °F 70.5 °F 30 in ENE 1.9 mph 5 mph 86% 0 in
08:14 75 °F 70.5 °F 30 in NE 1.8 mph 3.1 mph 86% 0 in
08:19 75.2 °F 70.7 °F 30 in NNE 1.7 mph 4 mph 86% 0 in
08:24 75.2 °F 70.7 °F 30 in NNE 1.4 mph 4 mph 86% 0 in
08:29 75.4 °F 70.9 °F 30 in North 1.4 mph 4.6 mph 86% 0 in
08:34 75.4 °F 70.9 °F 30 in NNO 1.4 mph 5 mph 86% 0 in
08:39 75.4 °F 70.7 °F 30 in NO 1.7 mph 5 mph 85.6% 0 in
08:44 75.4 °F 70.9 °F 30 in NO 2.4 mph 5.2 mph 85.8% 0 in
08:49 75.4 °F 70.5 °F 30 in Oeste 2.3 mph 5 mph 85% 0 in
08:54 75.2 °F 70.3 °F 30 in Oeste 2 mph 5.2 mph 84.8% 0 in
08:59 75.2 °F 69.8 °F 30 in Oeste 2.3 mph 5.4 mph 83.2% 0 in
09:04 75.4 °F 70 °F 30 in ONO 2.9 mph 6 mph 83.1% 0 in
09:09 75.7 °F 70.5 °F 30 in NO 3.1 mph 6 mph 84% 0 in
09:14 75.9 °F 70.7 °F 30 in ONO 3.6 mph 6 mph 84% 0 in
09:19 76.3 °F 71.1 °F 30 in ONO 3.6 mph 6 mph 84% 0 in
09:24 76.5 °F 71.2 °F 30 in ONO 3.6 mph 6 mph 84% 0 in
09:29 76.6 °F 71.4 °F 30 in North 3.4 mph 5 mph 84% 0 in
09:34 77 °F 71.8 °F 30 in NE 2.9 mph 8.1 mph 83.7% 0 in
09:39 77.4 °F 71.8 °F 30 in NE 3.2 mph 8.5 mph 83% 0 in
09:44 77.5 °F 72 °F 30 in NE 4 mph 9.7 mph 82.9% 0 in
09:49 77.5 °F 71.8 °F 30 in NE 4.7 mph 10.7 mph 82.1% 0 in
09:54 77.9 °F 72 °F 30 in NE 6.2 mph 11 mph 82% 0 in
09:59 78.4 °F 72.1 °F 30 in ENE 6.1 mph 14 mph 81.2% 0 in
10:04 79 °F 72.1 °F 30 in Este 5.9 mph 14 mph 79.7% 0 in
10:09 79.5 °F 72 °F 30 in ENE 6.3 mph 14 mph 77.6% 0 in
10:14 79.9 °F 71.6 °F 30 in ENE 7.4 mph 14 mph 76.3% 0 in
10:19 79.9 °F 71.2 °F 30 in Este 7.6 mph 18.4 mph 75.4% 0 in
10:24 79.5 °F 71.4 °F 30 in ENE 8.1 mph 18 mph 76% 0 in
10:29 79.3 °F 71.2 °F 30 in NE 8.4 mph 23.5 mph 76% 0 in
10:34 79.3 °F 71.1 °F 30 in ENE 9.2 mph 24.2 mph 76% 0 in
10:39 79.2 °F 70.9 °F 30 in ENE 10 mph 24 mph 76% 0 in
10:44 79.3 °F 70.7 °F 30 in ENE 11.8 mph 21 mph 75.3% 0 in
10:49 79.3 °F 70.7 °F 30 in ENE 11.4 mph 19 mph 75% 0 in
10:54 79.7 °F 71.1 °F 30 in NE 10.7 mph 19 mph 74.8% 0 in
10:59 79.5 °F 70.7 °F 30 in ENE 10.3 mph 17.3 mph 74.4% 0 in
11:04 79.3 °F 70.7 °F 30 in NE 9.7 mph 19.6 mph 75% 0 in
11:09 79.2 °F 70.7 °F 30 in NE 10 mph 20 mph 75.2% 0 in
11:14 79.2 °F 70.9 °F 30 in ENE 10.7 mph 17 mph 75.8% 0 in
11:19 79.3 °F 70.7 °F 30 in NE 10.1 mph 17.3 mph 75% 0 in
11:24 79.3 °F 70.7 °F 30 in NE 8.7 mph 19.2 mph 75% 0 in
11:29 79.3 °F 70.5 °F 30 in NE 9.4 mph 20.8 mph 74.5% 0 in
11:34 79.3 °F 70.5 °F 30 in NE 11.2 mph 21 mph 74.3% 0 in
11:39 79.5 °F 70.5 °F 30 in NE 10.9 mph 19.6 mph 74% 0 in
11:44 79.5 °F 70.3 °F 30 in NE 10.2 mph 24.2 mph 73.7% 0 in
11:49 79.5 °F 70.3 °F 30 in NE 10.6 mph 24 mph 73.3% 0 in
11:54 80.1 °F 70.5 °F 30 in NE 11.4 mph 18 mph 73% 0 in
11:59 80.2 °F 70.2 °F 30 in NE 10.3 mph 20.7 mph 71.7% 0 in
12:04 80.6 °F 70 °F 30 in NE 8.1 mph 21 mph 70.4% 0 in
12:09 81 °F 70.2 °F 30 in NE 8.3 mph 17.3 mph 69.6% 0 in
12:14 81.1 °F 69.8 °F 30 in NE 8.7 mph 20.8 mph 68.4% 0 in
12:19 81.3 °F 69.8 °F 30 in NE 9.5 mph 21 mph 68.1% 0 in
12:24 81.9 °F 69.4 °F 30 in ENE 11.2 mph 18.5 mph 66% 0 in
12:29 82 °F 69.1 °F 30 in ENE 10.4 mph 19 mph 65% 0 in
12:34 82.2 °F 68.9 °F 30 in ENE 8.7 mph 16 mph 64.2% 0 in
12:39 82 °F 68.9 °F 30 in NE 8.6 mph 15 mph 64.1% 0 in
12:44 82 °F 68.7 °F 30 in NE 8.5 mph 14 mph 64% 0 in
12:49 82 °F 68.5 °F 30 in NE 8.4 mph 15.2 mph 64% 0 in
12:54 81.9 °F 68.5 °F 30 in NE 8.1 mph 16.1 mph 64.2% 0 in
12:59 81.7 °F 68 °F 30 in NE 8.4 mph 17.3 mph 63.5% 0 in
13:04 81.7 °F 68.5 °F 30 in NE 9.2 mph 17 mph 64.5% 0 in
13:09 81.7 °F 68.4 °F 30 in NE 8.6 mph 15 mph 64% 0 in
13:14 81.9 °F 69.1 °F 30 in NNE 7.4 mph 12 mph 65.6% 0 in
13:19 81.7 °F 71.1 °F 30 in NNO 6.5 mph 12 mph 70.2% 0 in
13:24 81 °F 71.8 °F 30 in North 4.7 mph 11.5 mph 74.1% 0.01 in
13:29 79.7 °F 72.3 °F 30 in North 5.2 mph 12 mph 78.1% 0.02 in
13:34 79 °F 72.3 °F 30 in North 6.4 mph 10 mph 80.3% 0.03 in
13:39 78.4 °F 72.3 °F 30 in North 6 mph 8.5 mph 81.5% 0.06 in
13:44 78.3 °F 72 °F 30 in NNE 5.2 mph 11.5 mph 81.4% 0.06 in
13:49 77.9 °F 71.2 °F 30 in NNE 5.4 mph 12 mph 80.4% 0.11 in
13:54 77.7 °F 71.6 °F 30 in NNE 5.9 mph 10 mph 81.5% 0.13 in
13:59 77.5 °F 71.6 °F 30 in NE 5.9 mph 10.4 mph 82% 0.14 in
14:04 77.5 °F 71.6 °F 30 in NNE 5.9 mph 10.7 mph 82% 0.14 in
14:09 77.5 °F 71.6 °F 30 in NE 6.1 mph 11 mph 82% 0.14 in
14:14 77.5 °F 71.8 °F 30 in NE 6.4 mph 16.1 mph 82% 0.14 in
14:19 77.7 °F 71.8 °F 30 in NE 7.1 mph 16.1 mph 82% 0.14 in
14:24 77.7 °F 71.6 °F 30 in NNE 8.7 mph 16 mph 81.6% 0.14 in
14:29 77.7 °F 71.8 °F 30 in NNE 8.4 mph 14 mph 82% 0.14 in
14:34 77.7 °F 71.6 °F 30 in NNE 7.6 mph 12.7 mph 81.3% 0.12 in
14:39 78.1 °F 71.4 °F 30 in NNE 7.9 mph 12.3 mph 80.4% 0.12 in
14:44 78.3 °F 71.2 °F 30 in NE 8.5 mph 13 mph 78.9% 0.09 in
14:49 78.8 °F 71.2 °F 30 in NE 8.2 mph 13.8 mph 77.5% 0.09 in
14:54 79.3 °F 70.7 °F 30 in NE 7.6 mph 15.6 mph 75.1% 0.03 in
14:59 79.9 °F 70.5 °F 30 in NE 7.8 mph 16.1 mph 73.2% 0.01 in
15:04 80.2 °F 70.3 °F 30 in NE 8.1 mph 15 mph 72.2% 0.01 in
15:09 80.2 °F 70.5 °F 30 in NE 8.3 mph 15 mph 72.3% 0.01 in
15:14 80.4 °F 71.1 °F 30 in NE 8.7 mph 13 mph 73.1% 0.01 in
15:19 81 °F 71.4 °F 30 in NE 7.6 mph 11.5 mph 72.7% 0.01 in
15:24 81 °F 71.1 °F 30 in NE 5.4 mph 14 mph 71.8% 0.01 in
15:29 80.8 °F 70.9 °F 30 in NE 5.8 mph 14 mph 72% 0 in
15:34 80.8 °F 70.9 °F 30 in NE 6.9 mph 14 mph 72.1% 0 in
15:39 81.1 °F 71.4 °F 30 in NE 6.6 mph 12 mph 72.3% 0 in
15:44 81.7 °F 71.4 °F 30 in NE 5.9 mph 11.5 mph 71.5% 0 in
15:49 81.7 °F 71.6 °F 30 in NE 6.2 mph 12 mph 71.9% 0 in
15:54 81.7 °F 71.4 °F 30 in NE 6.9 mph 14 mph 70.9% 0 in
15:59 81.7 °F 71.2 °F 30 in NE 7.1 mph 14 mph 70.5% 0 in
16:04 81.9 °F 71.4 °F 30 in NE 7.6 mph 12 mph 71% 0 in
16:09 81.9 °F 71.2 °F 30 in NE 7.2 mph 11.8 mph 70.1% 0 in
16:14 82 °F 70.7 °F 30 in NE 6.2 mph 12 mph 68.8% 0 in
16:19 82.2 °F 70.5 °F 30 in ENE 6.2 mph 11.5 mph 67.7% 0 in
16:24 82.8 °F 70.9 °F 30 in NE 6.2 mph 13 mph 67.6% 0 in
16:29 82.8 °F 70.5 °F 30 in NE 6.3 mph 13 mph 66.6% 0 in
16:34 82.9 °F 69.6 °F 30 in NE 6.4 mph 11.5 mph 64.3% 0 in
16:39 82.9 °F 69.6 °F 30 in NE 6.3 mph 13 mph 64.3% 0 in
16:44 83.1 °F 69.6 °F 30 in ENE 6.2 mph 13 mph 63.9% 0 in
16:49 83.5 °F 69.6 °F 30 in NE 6.6 mph 13 mph 63.2% 0 in
16:54 83.5 °F 69.8 °F 30 in NE 7.4 mph 14 mph 63.7% 0 in
16:59 83.5 °F 70 °F 30 in NE 7.8 mph 14 mph 64% 0 in
17:04 83.7 °F 70.3 °F 30 in NE 8.5 mph 13 mph 64.6% 0 in
17:09 83.8 °F 70.5 °F 30 in NE 8 mph 13.8 mph 64.4% 0 in
17:14 83.8 °F 70.2 °F 30 in NE 6.9 mph 14 mph 63.6% 0 in
17:19 83.8 °F 70 °F 30 in NE 7.1 mph 17.8 mph 63% 0 in
17:24 83.7 °F 70 °F 30 in NE 7.6 mph 18.4 mph 63.5% 0 in
17:29 83.7 °F 70.5 °F 30 in NNE 8 mph 17 mph 64.6% 0 in
17:34 83.8 °F 71.4 °F 30 in NE 8.7 mph 13 mph 66.6% 0 in
17:39 83.7 °F 71.6 °F 30 in NE 8.4 mph 16.1 mph 67.2% 0 in
17:44 83.1 °F 71.2 °F 30 in NE 7.6 mph 16.1 mph 67.3% 0 in
17:49 83.3 °F 70.7 °F 30 in NE 8 mph 13 mph 66% 0 in
17:54 83.5 °F 71.2 °F 30 in NE 8.7 mph 13 mph 66.9% 0 in
17:59 83.5 °F 71.4 °F 30 in NE 8.9 mph 17.5 mph 67.2% 0 in
18:04 82.9 °F 71.4 °F 30 in NE 9.2 mph 17.3 mph 68.1% 0 in
18:09 82.8 °F 71.2 °F 30 in NE 9.5 mph 18.5 mph 68.3% 0 in
18:14 82.2 °F 70.7 °F 30 in NE 10.2 mph 19 mph 68.2% 0 in
18:19 81.9 °F 70.7 °F 30 in NE 10.9 mph 19 mph 69% 0 in
18:24 81.9 °F 70.5 °F 30 in NE 12.5 mph 18.5 mph 68.7% 0 in
18:29 81.7 °F 70.3 °F 30 in NE 11.8 mph 19 mph 68.6% 0 in
18:34 81.7 °F 70 °F 30 in ENE 10.2 mph 17 mph 68% 0 in
18:39 81.3 °F 70 °F 30 in NE 10.1 mph 16.3 mph 68.5% 0 in
18:44 81.3 °F 69.8 °F 30 in ENE 9.7 mph 16 mph 68.1% 0 in
18:49 81.3 °F 69.8 °F 30 in ENE 8.9 mph 16 mph 68.1% 0 in
18:54 81.1 °F 69.6 °F 30 in ENE 7.4 mph 19.7 mph 68% 0 in
18:59 81 °F 69.6 °F 30 in ENE 8 mph 20 mph 68.5% 0 in
19:04 80.8 °F 69.8 °F 30 in NE 9.2 mph 15.6 mph 69% 0 in
19:09 80.6 °F 69.8 °F 30 in NE 9.1 mph 18.4 mph 69.6% 0 in
19:14 80.4 °F 69.8 °F 30 in NE 8.7 mph 18 mph 70% 0 in
19:19 80.4 °F 69.8 °F 30 in ENE 8.5 mph 17.5 mph 70% 0 in
19:24 80.2 °F 69.4 °F 30 in NE 8.1 mph 17 mph 69.6% 0 in
19:29 80.1 °F 69.4 °F 30 in ENE 8.1 mph 15 mph 70% 0 in
19:34 79.9 °F 69.3 °F 30 in NE 8.1 mph 19 mph 70% 0 in
19:39 79.5 °F 68.9 °F 30 in NE 8.3 mph 19 mph 70% 0 in
19:44 79.3 °F 68.9 °F 30 in NE 8.7 mph 18 mph 70.1% 0 in
19:49 79.3 °F 68.4 °F 30 in NE 8.3 mph 15.6 mph 69.3% 0 in
19:54 79.2 °F 67.6 °F 30 in NE 7.4 mph 16.1 mph 68% 0 in
19:59 79.2 °F 67.5 °F 30 in NE 7.5 mph 14 mph 67.2% 0 in
20:04 79.2 °F 67.3 °F 30 in NE 7.6 mph 10.7 mph 67% 0 in
20:09 79.2 °F 66.7 °F 30 in ENE 6.9 mph 11.5 mph 66% 0 in
20:14 79 °F 66.4 °F 30 in ENE 5.2 mph 12.7 mph 65.4% 0 in
20:19 78.8 °F 66.2 °F 30 in NE 5.3 mph 13 mph 65.3% 0 in
20:24 78.8 °F 66.4 °F 30 in ENE 5.4 mph 12 mph 66% 0 in
20:29 78.6 °F 66.4 °F 30 in ENE 5.2 mph 10 mph 66% 0 in
20:34 78.4 °F 66 °F 30 in ENE 4.7 mph 9 mph 66% 0 in
20:39 78.4 °F 66 °F 30 in NE 4.5 mph 8.7 mph 66% 0 in
20:44 78.3 °F 66.2 °F 30 in ENE 4 mph 12.5 mph 66.5% 0 in
20:49 78.3 °F 66.4 °F 30 in ENE 4.1 mph 13 mph 67% 0 in
20:54 78.3 °F 66.6 °F 30 in NE 4.3 mph 7 mph 67.5% 0 in
20:59 78.1 °F 66.7 °F 30 in NNE 3.8 mph 5.2 mph 68.1% 0 in
21:04 78.1 °F 67.1 °F 30 in NNE 2.9 mph 5.8 mph 69% 0 in
21:09 77.7 °F 66.9 °F 30 in NE 3 mph 6.2 mph 69.3% 0 in
21:14 77.5 °F 67.1 °F 30 in NE 3.1 mph 6 mph 70% 0 in
21:19 77.4 °F 67.3 °F 30 in NE 3.4 mph 6.2 mph 70.9% 0 in
21:24 77.4 °F 67.5 °F 30 in NE 4 mph 6 mph 71.8% 0 in
21:29 77.2 °F 67.6 °F 30 in NE 3.7 mph 6.2 mph 72.4% 0 in
21:34 77.2 °F 68 °F 30 in NE 3.1 mph 6.2 mph 73.4% 0 in
21:39 77 °F 68 °F 30 in NE 3.4 mph 6.2 mph 74% 0 in
21:44 76.8 °F 68.2 °F 30 in NE 4 mph 6.9 mph 74.7% 0 in
21:49 76.8 °F 68.4 °F 30 in NE 3.9 mph 7 mph 75% 0 in
21:54 76.8 °F 68.4 °F 30 in NE 3.6 mph 6.9 mph 75% 0 in
21:59 76.8 °F 68.7 °F 30 in NE 3.7 mph 7 mph 75.9% 0 in
22:04 76.6 °F 68.5 °F 30 in Este 4 mph 6 mph 76% 0 in
22:09 76.6 °F 68.5 °F 30 in ENE 3.7 mph 6.2 mph 76.1% 0 in
22:14 76.5 °F 68.7 °F 30 in NE 3.1 mph 6 mph 77% 0 in
22:19 76.5 °F 68.7 °F 30 in NE 3.1 mph 5.2 mph 77% 0 in
22:24 76.5 °F 68.7 °F 30 in ENE 3.1 mph 5.4 mph 77% 0 in
22:29 76.5 °F 68.7 °F 30 in NE 3.1 mph 6 mph 77% 0 in
22:34 76.3 °F 68.5 °F 30 in NNE 3.1 mph 7 mph 77% 0 in
22:39 76.3 °F 68.5 °F 30 in NNE 3.4 mph 7 mph 77% 0 in
22:44 76.1 °F 68.7 °F 30 in NNE 4 mph 6 mph 77.9% 0 in
22:49 75.9 °F 68.5 °F 30 in NNE 3.7 mph 5.8 mph 78% 0 in
22:54 75.9 °F 68.5 °F 30 in NNE 2.9 mph 6 mph 78% 0 in
22:59 75.7 °F 68.5 °F 30 in NNE 2.9 mph 5 mph 78% 0 in
23:04 75.7 °F 68.4 °F 30.1 in NNE 2.9 mph 5.8 mph 78% 0 in
23:09 75.7 °F 68.4 °F 30.1 in NNE 2.9 mph 6 mph 78% 0 in
23:14 75.7 °F 68.4 °F 30.1 in NNE 2.9 mph 5 mph 78% 0 in
23:19 75.6 °F 68.5 °F 30.1 in NNO 2.5 mph 3.6 mph 78.9% 0 in
23:24 75.6 °F 68.5 °F 30.1 in North 1.8 mph 4.6 mph 79% 0 in
23:29 75.6 °F 68.5 °F 30.1 in NNE 2 mph 5 mph 79% 0 in
23:34 75.4 °F 68.4 °F 30.1 in NE 2.4 mph 5 mph 79% 0 in
23:39 75.4 °F 68.4 °F 30.1 in North 2.2 mph 5 mph 79% 0 in
23:44 75.4 °F 68.5 °F 30.1 in NNE 2 mph 5 mph 79.4% 0 in
23:49 75.2 °F 68.5 °F 30.1 in NE 2 mph 5 mph 79.8% 0 in
23:54 75.2 °F 68.5 °F 30.1 in NE 2 mph 5.2 mph 80% 0 in
23:59 75 °F 68.5 °F 30.1 in NE 2.3 mph 5.2 mph 80% 0 in
Murcia-Puente Tocinos, España
Compliments of Weather Underground - 3 mb

La estación de MeteoMurcia.com, publica sus datos en los siguientes proyectos:

Weather Underground PWS IMURCIAP2 Meteoclimatic www.awekas.at

W3Counter
Web Analytics